Time;durP1;ratioP1;P1;durP2;ratioP2;P2;SDS_P1;SDS_P2;PMS_P1;PMS_P2;Temp;Humidity;BMP_temperature;BMP_pressure;BME280_temperature;BME280_humidity;BME280_pressure;Samples;Min_cycle;Max_cycle;Signal;HPM_P1;HPM_P2
2023/09/19 00:00:20;;;;;;;7.73;5.37;;;;;20.80;96375.00;;;;5015872;28;20201;-69
2023/09/19 00:03:11;;;;;;;13.20;5.90;;;;;20.50;96368.00;;;;5012349;28;20198;-69
2023/09/19 00:06:01;;;;;;;8.30;5.37;;;;;20.30;96364.00;;;;5014082;28;20237;-69
2023/09/19 00:08:50;;;;;;;12.07;5.37;;;;;20.30;96378.00;;;;5019620;28;20244;-69
2023/09/19 00:11:39;;;;;;;7.53;5.47;;;;;20.20;96389.00;;;;5015117;28;20202;-69
2023/09/19 00:14:28;;;;;;;12.80;5.97;;;;;20.30;96396.00;;;;5018111;28;20779;-70
2023/09/19 00:17:17;;;;;;;12.57;5.67;;;;;20.40;96410.00;;;;5017567;28;20261;-69
2023/09/19 00:20:12;;;;;;;7.53;5.33;;;;;20.40;96415.00;;;;5011628;28;20202;-69
2023/09/19 00:23:08;;;;;;;10.60;5.57;;;;;20.70;96401.00;;;;5020163;28;20225;-69
2023/09/19 00:26:00;;;;;;;7.67;6.03;;;;;20.80;96404.00;;;;5015558;28;20225;-69
2023/09/19 00:28:49;;;;;;;23.80;5.73;;;;;20.90;96405.00;;;;5017681;28;20232;-68
2023/09/19 00:31:39;;;;;;;8.67;5.60;;;;;20.90;96403.00;;;;5024002;28;20194;-70
2023/09/19 00:34:28;;;;;;;11.83;5.47;;;;;20.70;96394.00;;;;5018854;28;20583;-69
2023/09/19 00:37:18;;;;;;;8.30;5.00;;;;;20.80;96389.00;;;;5019597;28;20602;-69
2023/09/19 00:40:11;;;;;;;7.80;6.93;;;;;20.70;96386.00;;;;5019504;28;20217;-69
2023/09/19 00:43:01;;;;;;;6.53;3.33;;;;;20.50;96389.00;;;;5024545;28;20251;-68
2023/09/19 00:45:52;;;;;;;8.83;3.07;;;;;20.30;96388.00;;;;5014656;28;20225;-69
2023/09/19 00:48:43;;;;;;;8.17;2.30;;;;;20.50;96397.00;;;;5010819;28;20641;-69
2023/09/19 00:51:32;;;;;;;3.97;2.30;;;;;20.50;96394.00;;;;5024820;28;20617;-69
2023/09/19 00:54:23;;;;;;;5.77;3.63;;;;;20.00;96401.00;;;;5013220;28;20198;-69
2023/09/19 00:57:12;;;;;;;10.53;3.23;;;;;20.20;96406.00;;;;5011181;28;20241;-68
2023/09/19 01:00:05;;;;;;;4.70;2.77;;;;;20.50;96408.00;;;;5018206;28;20193;-68
2023/09/19 01:02:54;;;;;;;7.73;3.00;;;;;20.50;96399.00;;;;5018500;28;20232;-69
2023/09/19 01:05:43;;;;;;;3.57;2.43;;;;;20.60;96397.00;;;;5023229;28;20228;-70
2023/09/19 01:08:36;;;;;;;4.37;2.60;;;;;20.60;96388.00;;;;5013777;28;20205;-68
2023/09/19 01:11:34;;;;;;;2.73;1.97;;;;;20.60;96394.00;;;;5014105;28;20205;-70
2023/09/19 01:14:31;;;;;;;4.70;2.43;;;;;20.40;96399.00;;;;5013540;28;20206;-69
2023/09/19 01:17:26;;;;;;;8.30;2.70;;;;;20.10;96406.00;;;;5016470;28;20226;-70
2023/09/19 01:20:32;;;;;;;9.80;2.90;;;;;20.00;96402.00;;;;5012999;28;20206;-70
2023/09/19 01:23:25;;;;;;;4.60;2.87;;;;;20.10;96407.00;;;;5012876;28;20197;-70
2023/09/19 01:26:24;;;;;;;5.83;3.30;;;;;20.10;96403.00;;;;5014225;28;20230;-70
2023/09/19 01:29:34;;;;;;;10.77;3.03;;;;;20.30;96406.00;;;;5014422;28;20226;-70
2023/09/19 01:32:25;;;;;;;3.57;2.50;;;;;20.40;96399.00;;;;5014612;28;20206;-70
2023/09/19 01:35:14;;;;;;;3.73;2.37;;;;;20.50;96406.00;;;;5017422;28;20217;-70
2023/09/19 01:38:03;;;;;;;8.17;3.63;;;;;20.20;96416.00;;;;5018680;28;20216;-69
2023/09/19 01:41:03;;;;;;;3.60;3.00;;;;;20.30;96416.00;;;;5010326;28;20198;-69
2023/09/19 01:43:52;;;;;;;6.47;2.40;;;;;20.50;96410.00;;;;5019646;28;20210;-70
2023/09/19 01:46:43;;;;;;;3.43;2.33;;;;;20.50;96393.00;;;;5047130;23;20232;-65
2023/09/19 01:49:39;;;;;;;5.17;2.10;;;;;20.40;96401.00;;;;5045290;28;20216;-65
2023/09/19 01:52:31;;;;;;;6.03;2.40;;;;;20.30;96409.00;;;;5044965;28;20196;-66
2023/09/19 01:55:22;;;;;;;5.20;1.60;;;;;20.00;96416.00;;;;5048948;28;20700;-65
2023/09/19 01:58:17;;;;;;;4.53;1.83;;;;;20.20;96410.00;;;;5026489;28;20319;-65
2023/09/19 02:01:07;;;;;;;6.03;2.70;;;;;20.30;96411.00;;;;5025804;28;20217;-65
2023/09/19 02:03:56;;;;;;;4.33;1.90;;;;;20.20;96412.00;;;;5025240;28;20206;-66
2023/09/19 02:06:47;;;;;;;5.63;1.93;;;;;20.20;96409.00;;;;5027938;28;20221;-65
2023/09/19 02:09:38;;;;;;;7.33;1.97;;;;;20.10;96410.00;;;;5027361;28;20588;-66
2023/09/19 02:12:28;;;;;;;2.83;1.87;;;;;20.20;96409.00;;;;5024858;28;20205;-65
2023/09/19 02:15:17;;;;;;;2.73;1.53;;;;;20.30;96417.00;;;;5026025;28;20205;-66
2023/09/19 02:18:07;;;;;;;1.70;1.47;;;;;20.30;96413.00;;;;5026360;28;20213;-65
2023/09/19 02:20:56;;;;;;;3.33;2.00;;;;;20.30;96427.00;;;;5028548;28;20224;-65
2023/09/19 02:23:47;;;;;;;3.43;1.43;;;;;20.10;96428.00;;;;5028457;28;20674;-65
2023/09/19 02:26:37;;;;;;;1.40;0.90;;;;;20.10;96440.00;;;;5026112;28;20229;-65
2023/09/19 02:29:26;;;;;;;5.87;1.97;;;;;19.90;96450.00;;;;5021089;28;20202;-65
2023/09/19 02:32:18;;;;;;;3.87;2.30;;;;;19.60;96444.00;;;;5023758;28;20205;-65
2023/09/19 02:35:10;;;;;;;4.10;1.70;;;;;20.00;96447.00;;;;5025538;28;20205;-65
2023/09/19 02:37:59;;;;;;;1.00;0.90;;;;;20.10;96449.00;;;;5021182;28;20702;-66
2023/09/19 02:40:50;;;;;;;1.00;0.90;;;;;20.00;96444.00;;;;5026812;28;20221;-66
2023/09/19 02:43:39;;;;;;;1.67;1.00;;;;;19.90;96451.00;;;;5027279;28;20208;-65
2023/09/19 02:46:28;;;;;;;1.23;0.80;;;;;19.80;96451.00;;;;5024365;28;20228;-65
2023/09/19 02:49:18;;;;;;;0.83;0.83;;;;;19.80;96467.00;;;;5022564;28;20216;-65
2023/09/19 02:52:07;;;;;;;3.63;1.23;;;;;19.30;96462.00;;;;5024191;28;20197;-66
2023/09/19 02:54:56;;;;;;;0.90;0.90;;;;;19.50;96470.00;;;;5026027;28;20558;-65
2023/09/19 02:57:49;;;;;;;3.97;1.27;;;;;19.70;96473.00;;;;5027162;28;20209;-66
2023/09/19 03:00:38;;;;;;;1.60;1.50;;;;;19.70;96472.00;;;;5026369;28;20766;-65
2023/09/19 03:03:28;;;;;;;1.43;0.97;;;;;19.60;96472.00;;;;5024468;28;20209;-66
2023/09/19 03:06:19;;;;;;;3.97;1.10;;;;;19.50;96474.00;;;;5025063;28;20412;-65
2023/09/19 03:09:11;;;;;;;8.80;1.03;;;;;19.60;96478.00;;;;5023654;28;20208;-66
2023/09/19 03:12:00;;;;;;;1.70;1.10;;;;;19.40;96473.00;;;;5024981;28;20197;-66
2023/09/19 03:14:51;;;;;;;0.77;0.77;;;;;19.00;96485.00;;;;5026059;28;20228;-65
2023/09/19 03:17:44;;;;;;;2.13;1.10;;;;;19.40;96477.00;;;;5026265;28;20613;-65
2023/09/19 03:20:33;;;;;;;2.90;1.40;;;;;19.50;96476.00;;;;5028117;28;20224;-65
2023/09/19 03:23:22;;;;;;;3.33;1.10;;;;;19.30;96475.00;;;;5027403;28;20220;-65
2023/09/19 03:26:12;;;;;;;2.17;1.20;;;;;19.20;96490.00;;;;5025767;28;20221;-65
2023/09/19 03:29:06;;;;;;;1.97;1.83;;;;;19.10;96491.00;;;;5027150;28;20201;-66
2023/09/19 03:31:56;;;;;;;1.63;1.00;;;;;18.70;96494.00;;;;5027910;28;20820;-65
2023/09/19 03:34:48;;;;;;;1.80;0.90;;;;;18.70;96490.00;;;;5027651;28;20224;-65
2023/09/19 03:37:37;;;;;;;2.57;1.10;;;;;18.90;96491.00;;;;5028141;28;20694;-65
2023/09/19 03:40:26;;;;;;;1.37;0.97;;;;;18.50;96489.00;;;;5028141;28;20221;-66
2023/09/19 03:43:15;;;;;;;1.10;1.00;;;;;18.60;96494.00;;;;5025308;28;20216;-65
2023/09/19 03:46:05;;;;;;;3.17;1.57;;;;;18.30;96486.00;;;;5024225;28;20240;-65
2023/09/19 03:48:55;;;;;;;0.90;0.80;;;;;18.40;96493.00;;;;5029680;28;20212;-65
2023/09/19 03:51:44;;;;;;;1.27;1.10;;;;;18.40;96491.00;;;;5025329;28;20575;-65
2023/09/19 03:54:33;;;;;;;1.63;1.17;;;;;18.50;96493.00;;;;5024124;28;20205;-65
2023/09/19 03:57:22;;;;;;;1.43;1.13;;;;;18.60;96490.00;;;;5031050;28;20224;-65
2023/09/19 04:00:14;;;;;;;2.57;1.10;;;;;18.40;96491.00;;;;5029073;28;20213;-66
2023/09/19 04:03:06;;;;;;;2.30;1.10;;;;;18.70;96496.00;;;;5029611;28;20618;-65
2023/09/19 04:05:56;;;;;;;1.60;1.30;;;;;18.60;96500.00;;;;5030754;28;20278;-65
2023/09/19 04:08:47;;;;;;;1.00;0.80;;;;;18.40;96503.00;;;;5029309;28;20205;-66
2023/09/19 04:11:36;;;;;;;1.43;0.77;;;;;18.60;96501.00;;;;5025197;28;20197;-65
2023/09/19 04:14:25;;;;;;;6.13;1.13;;;;;18.60;96508.00;;;;5026089;28;20206;-65
2023/09/19 04:17:14;;;;;;;2.27;1.07;;;;;18.50;96505.00;;;;5027576;28;20233;-65
2023/09/19 04:20:07;;;;;;;2.67;0.87;;;;;18.50;96516.00;;;;5025890;28;20216;-65
2023/09/19 04:22:57;;;;;;;1.30;1.20;;;;;18.70;96514.00;;;;5029016;28;20205;-65
2023/09/19 04:25:46;;;;;;;0.90;0.83;;;;;18.80;96517.00;;;;5029469;28;20741;-65
2023/09/19 04:28:38;;;;;;;1.27;0.90;;;;;18.90;96523.00;;;;5029495;28;20209;-66
2023/09/19 04:31:27;;;;;;;2.40;1.10;;;;;18.60;96537.00;;;;5025276;28;20260;-66
2023/09/19 04:34:16;;;;;;;2.10;1.90;;;;;18.30;96536.00;;;;5024706;28;20694;-65
2023/09/19 04:37:05;;;;;;;0.90;0.80;;;;;18.50;96544.00;;;;5025309;28;20232;-65
2023/09/19 04:39:56;;;;;;;0.80;0.80;;;;;18.70;96546.00;;;;5031090;28;20213;-65
2023/09/19 04:42:45;;;;;;;2.73;0.80;;;;;18.60;96539.00;;;;5029569;28;20232;-65
2023/09/19 04:45:35;;;;;;;1.77;1.07;;;;;18.60;96544.00;;;;5029619;28;20206;-65
2023/09/19 04:48:25;;;;;;;1.23;0.83;;;;;18.60;96542.00;;;;5025381;28;20702;-64
2023/09/19 04:51:15;;;;;;;2.63;1.30;;;;;18.60;96541.00;;;;5022569;28;20205;-65
2023/09/19 04:54:04;;;;;;;2.93;1.30;;;;;18.60;96547.00;;;;5025798;28;20584;-65
2023/09/19 04:56:54;;;;;;;3.83;1.70;;;;;18.70;96543.00;;;;5025817;28;20607;-65
2023/09/19 04:59:43;;;;;;;2.40;0.87;;;;;18.60;96547.00;;;;5025841;28;20205;-65
2023/09/19 05:02:34;;;;;;;5.73;1.47;;;;;18.70;96549.00;;;;5026421;28;20232;-65
2023/09/19 05:05:25;;;;;;;2.17;1.40;;;;;18.70;96558.00;;;;5024938;28;22126;-65
2023/09/19 05:08:15;;;;;;;3.73;1.33;;;;;18.60;96555.00;;;;5019740;28;20209;-65
2023/09/19 05:11:04;;;;;;;1.97;1.20;;;;;18.20;96564.00;;;;5026079;28;20212;-65
2023/09/19 05:13:54;;;;;;;4.00;1.60;;;;;18.30;96572.00;;;;5025383;28;20229;-65
2023/09/19 05:16:43;;;;;;;3.43;1.70;;;;;18.30;96571.00;;;;5026513;28;20237;-66
2023/09/19 05:19:34;;;;;;;3.00;1.70;;;;;18.50;96570.00;;;;5024622;28;20769;-65
2023/09/19 05:22:24;;;;;;;1.00;0.90;;;;;18.70;96570.00;;;;5029068;28;22045;-65
2023/09/19 05:25:16;;;;;;;2.67;1.33;;;;;18.70;96573.00;;;;5026716;28;20223;-64
2023/09/19 05:28:05;;;;;;;1.17;0.97;;;;;18.90;96581.00;;;;5025872;28;20205;-65
2023/09/19 05:30:56;;;;;;;1.83;0.83;;;;;18.90;96578.00;;;;5024048;28;20713;-65
2023/09/19 05:33:45;;;;;;;1.23;1.00;;;;;18.70;96581.00;;;;5024556;28;20201;-65
2023/09/19 05:36:34;;;;;;;1.13;1.03;;;;;18.80;96585.00;;;;5025935;28;20221;-65
2023/09/19 05:39:23;;;;;;;0.97;0.87;;;;;18.90;96584.00;;;;5023142;28;20206;-65
2023/09/19 05:42:12;;;;;;;1.43;0.93;;;;;19.00;96595.00;;;;5024201;28;20709;-66
2023/09/19 05:45:01;;;;;;;2.90;1.30;;;;;19.10;96589.00;;;;5021131;28;20616;-65
2023/09/19 05:47:55;;;;;;;1.50;1.00;;;;;19.10;96583.00;;;;5027429;28;20217;-65
2023/09/19 05:50:48;;;;;;;2.20;1.00;;;;;19.20;96583.00;;;;5025166;28;20248;-65
2023/09/19 05:53:37;;;;;;;4.33;1.13;;;;;19.30;96585.00;;;;5024778;28;20198;-65
2023/09/19 05:56:27;;;;;;;1.50;1.37;;;;;19.40;96587.00;;;;5025979;28;20308;-66
2023/09/19 05:59:16;;;;;;;1.80;1.23;;;;;19.20;96595.00;;;;5025101;28;20205;-65
2023/09/19 06:02:06;;;;;;;1.60;1.13;;;;;18.90;96593.00;;;;5022056;28;20233;-65
2023/09/19 06:04:56;;;;;;;0.83;0.63;;;;;18.60;96595.00;;;;5020826;28;20213;-64
2023/09/19 06:07:45;;;;;;;1.20;1.10;;;;;18.30;96604.00;;;;5023848;28;20332;-65
2023/09/19 06:10:34;;;;;;;1.10;0.80;;;;;18.30;96598.00;;;;5025106;28;20216;-66
2023/09/19 06:13:26;;;;;;;1.97;0.93;;;;;18.40;96598.00;;;;5026879;28;20205;-65
2023/09/19 06:16:15;;;;;;;0.97;0.83;;;;;18.90;96612.00;;;;5020538;28;20236;-66
2023/09/19 06:19:06;;;;;;;0.80;0.80;;;;;19.00;96607.00;;;;5025099;28;20205;-65
2023/09/19 06:21:59;;;;;;;4.13;0.97;;;;;19.20;96606.00;;;;5027272;28;20600;-65
2023/09/19 06:24:48;;;;;;;1.70;1.00;;;;;19.30;96600.00;;;;5023081;28;20205;-66
2023/09/19 06:27:38;;;;;;;2.03;0.90;;;;;19.10;96607.00;;;;5021204;28;20733;-66
2023/09/19 06:30:29;;;;;;;0.67;0.67;;;;;19.10;96619.00;;;;5022975;28;20201;-66
2023/09/19 06:33:20;;;;;;;2.17;1.10;;;;;19.00;96620.00;;;;5022956;28;20283;-66
2023/09/19 06:36:09;;;;;;;1.23;0.83;;;;;19.00;96620.00;;;;5021922;28;20228;-66
2023/09/19 06:39:00;;;;;;;1.13;0.80;;;;;19.40;96626.00;;;;5024961;28;20213;-65
2023/09/19 06:41:49;;;;;;;0.70;0.60;;;;;19.40;96627.00;;;;5026316;28;20599;-66
2023/09/19 06:44:38;;;;;;;1.33;1.13;;;;;19.40;96642.00;;;;5024936;28;20198;-66
2023/09/19 06:47:27;;;;;;;2.27;0.90;;;;;19.50;96651.00;;;;5021195;28;20240;-66
2023/09/19 06:50:18;;;;;;;2.73;0.97;;;;;19.60;96648.00;;;;5020773;28;20212;-65
2023/09/19 06:53:07;;;;;;;2.90;1.10;;;;;19.70;96649.00;;;;5022184;28;20201;-66
2023/09/19 06:55:58;;;;;;;2.23;0.93;;;;;19.70;96659.00;;;;5024798;28;20713;-66
2023/09/19 06:58:47;;;;;;;1.37;1.00;;;;;19.70;96661.00;;;;5023932;28;20580;-66
2023/09/19 07:01:37;;;;;;;1.47;1.10;;;;;19.70;96672.00;;;;5022700;28;20434;-66
2023/09/19 07:04:26;;;;;;;1.20;0.80;;;;;19.40;96667.00;;;;5023942;28;20216;-66
2023/09/19 07:07:15;;;;;;;4.43;1.10;;;;;19.20;96686.00;;;;5025422;28;20229;-66
2023/09/19 07:10:05;;;;;;;0.73;0.73;;;;;19.10;96691.00;;;;5025683;28;20205;-66
2023/09/19 07:12:59;;;;;;;1.43;0.93;;;;;19.20;96691.00;;;;5028167;28;20204;-66
2023/09/19 07:15:49;;;;;;;2.77;1.00;;;;;18.80;96688.00;;;;5023532;28;20222;-66
2023/09/19 07:18:38;;;;;;;1.00;0.90;;;;;19.10;96696.00;;;;5021075;28;20917;-65
2023/09/19 07:21:28;;;;;;;1.73;1.30;;;;;19.10;96696.00;;;;5018122;28;20198;-65
2023/09/19 07:24:17;;;;;;;2.83;1.13;;;;;19.30;96694.00;;;;5017699;28;20224;-65
2023/09/19 07:27:07;;;;;;;3.47;1.07;;;;;19.40;96690.00;;;;5021553;28;20236;-65
2023/09/19 07:29:57;;;;;;;2.30;1.17;;;;;19.40;96698.00;;;;5021190;28;20205;-66
2023/09/19 07:32:46;;;;;;;1.20;0.83;;;;;19.50;96701.00;;;;5020008;28;20197;-64
2023/09/19 07:35:35;;;;;;;1.57;1.00;;;;;19.60;96695.00;;;;5023151;28;20211;-65
2023/09/19 07:38:24;;;;;;;2.07;1.07;;;;;19.70;96700.00;;;;5023281;28;20205;-65
2023/09/19 07:41:14;;;;;;;1.33;1.00;;;;;19.80;96705.00;;;;5018234;28;20213;-65
2023/09/19 07:44:03;;;;;;;2.63;1.23;;;;;19.80;96706.00;;;;5020990;28;20225;-66
2023/09/19 07:46:53;;;;;;;1.17;1.03;;;;;19.70;96711.00;;;;5037815;23;20244;-69
2023/09/19 07:49:43;;;;;;;3.27;1.00;;;;;19.90;96710.00;;;;5021220;28;20204;-68
2023/09/19 07:52:33;;;;;;;2.20;1.33;;;;;20.30;96711.00;;;;5026383;28;20202;-68
2023/09/19 07:55:25;;;;;;;2.67;1.47;;;;;20.20;96715.00;;;;5018821;28;20205;-68
2023/09/19 07:58:15;;;;;;;2.30;1.43;;;;;20.30;96732.00;;;;5024881;28;20253;-69
2023/09/19 08:01:06;;;;;;;4.30;1.37;;;;;20.10;96733.00;;;;5025138;28;20209;-68
2023/09/19 08:03:56;;;;;;;3.37;1.50;;;;;20.20;96736.00;;;;5022256;28;20235;-68
2023/09/19 08:06:45;;;;;;;3.73;0.97;;;;;20.20;96741.00;;;;5024110;28;20221;-68
2023/09/19 08:09:36;;;;;;;1.13;0.60;;;;;20.30;96744.00;;;;5026315;28;20205;-69
2023/09/19 08:12:25;;;;;;;0.70;0.70;;;;;20.90;96750.00;;;;5025551;28;20201;-68
2023/09/19 08:15:15;;;;;;;3.20;0.93;;;;;20.70;96751.00;;;;5026435;28;20207;-69
2023/09/19 08:18:08;;;;;;;8.17;1.00;;;;;20.90;96745.00;;;;5026504;28;20607;-68
2023/09/19 08:21:00;;;;;;;1.00;0.90;;;;;21.60;96748.00;;;;5026142;28;20207;-69
2023/09/19 08:23:49;;;;;;;1.90;0.97;;;;;21.80;96754.00;;;;5022805;28;20252;-68
2023/09/19 08:26:38;;;;;;;2.90;1.10;;;;;22.00;96734.00;;;;5021586;28;20609;-68
2023/09/19 08:29:29;;;;;;;1.97;1.20;;;;;22.30;96749.00;;;;5030530;28;20212;-68
2023/09/19 08:32:19;;;;;;;1.13;0.90;;;;;22.40;96742.00;;;;5024791;28;20202;-68
2023/09/19 08:35:09;;;;;;;2.13;0.73;;;;;22.80;96748.00;;;;5022853;28;20213;-69
2023/09/19 08:38:03;;;;;;;3.43;1.23;;;;;23.20;96748.00;;;;5031660;28;20221;-68
2023/09/19 08:40:52;;;;;;;2.97;0.97;;;;;23.30;96753.00;;;;5024861;28;20549;-68
2023/09/19 08:43:43;;;;;;;1.20;0.97;;;;;23.80;96754.00;;;;5027722;28;20232;-69
2023/09/19 08:46:32;;;;;;;1.20;0.93;;;;;24.10;96751.00;;;;5029656;28;20233;-68
2023/09/19 08:49:30;;;;;;;1.63;1.00;;;;;24.50;96753.00;;;;5027618;28;20267;-69
2023/09/19 08:52:23;;;;;;;3.10;0.93;;;;;24.70;96752.00;;;;5027024;28;20807;-68
2023/09/19 08:55:20;;;;;;;1.77;1.10;;;;;24.10;96750.00;;;;5025023;28;20212;-69
2023/09/19 08:58:13;;;;;;;2.60;1.17;;;;;24.60;96755.00;;;;5024532;28;20225;-69
2023/09/19 09:01:02;;;;;;;1.77;0.97;;;;;24.90;96759.00;;;;5025176;28;20201;-69
2023/09/19 09:03:52;;;;;;;1.17;0.93;;;;;24.80;96759.00;;;;5027925;28;20221;-69
2023/09/19 09:06:43;;;;;;;1.63;1.10;;;;;24.80;96754.00;;;;5026465;28;20221;-69
2023/09/19 09:09:32;;;;;;;3.13;0.83;;;;;24.10;96753.00;;;;5022228;28;20202;-68
2023/09/19 09:12:22;;;;;;;3.53;0.90;;;;;24.60;96754.00;;;;5023027;28;20201;-68
2023/09/19 09:15:16;;;;;;;3.77;1.47;;;;;25.00;96762.00;;;;5027531;28;20197;-69
2023/09/19 09:18:05;;;;;;;3.33;0.70;;;;;25.40;96743.00;;;;5026305;28;20244;-69
2023/09/19 09:20:55;;;;;;;5.27;1.20;;;;;25.60;96755.00;;;;5021965;28;20645;-69
2023/09/19 09:23:45;;;;;;;1.07;0.93;;;;;25.60;96754.00;;;;5026713;28;20613;-68
2023/09/19 09:26:44;;;;;;;1.10;0.90;;;;;25.70;96758.00;;;;5026023;28;20786;-69
2023/09/19 09:29:49;;;;;;;1.20;1.07;;;;;26.10;96765.00;;;;5022600;28;20218;-68
2023/09/19 09:32:39;;;;;;;6.03;1.00;;;;;26.40;96755.00;;;;5022633;28;20209;-69
2023/09/19 09:35:31;;;;;;;5.13;0.90;;;;;26.50;96768.00;;;;5026137;28;20209;-69
2023/09/19 09:38:21;;;;;;;2.03;1.50;;;;;26.20;96764.00;;;;5029092;28;20730;-69
2023/09/19 09:41:16;;;;;;;2.30;0.90;;;;;26.70;96763.00;;;;5026380;28;20209;-69
2023/09/19 09:44:15;;;;;;;1.97;1.30;;;;;27.10;96773.00;;;;5024839;28;20229;-69
2023/09/19 09:50:17;;;;;;;3.10;1.60;;;;;27.50;96770.00;;;;5023856;28;20646;-69
2023/09/19 09:53:21;;;;;;;2.00;1.47;;;;;27.40;96770.00;;;;5025479;28;20206;-69
2023/09/19 09:56:12;;;;;;;4.03;1.30;;;;;27.90;96773.00;;;;5026062;28;20224;-69
2023/09/19 09:59:02;;;;;;;3.87;1.77;;;;;28.00;96767.00;;;;5029006;28;20232;-70
2023/09/19 10:01:53;;;;;;;5.43;1.60;;;;;27.60;96774.00;;;;5027915;28;20208;-69
2023/09/19 10:04:51;;;;;;;2.43;1.87;;;;;28.00;96768.00;;;;5024503;28;20251;-69
2023/09/19 10:07:42;;;;;;;3.43;1.30;;;;;28.60;96766.00;;;;5026992;28;20242;-69
2023/09/19 10:10:53;;;;;;;1.70;1.30;;;;;27.80;96766.00;;;;5025775;28;20211;-69
2023/09/19 10:13:42;;;;;;;3.07;1.90;;;;;28.60;96763.00;;;;5024448;28;20683;-69
2023/09/19 10:16:32;;;;;;;2.30;1.70;;;;;28.90;96766.00;;;;5024680;28;20240;-68
2023/09/19 10:19:28;;;;;;;2.33;1.60;;;;;29.20;96769.00;;;;5024813;28;20208;-69
2023/09/19 10:22:22;;;;;;;4.23;1.90;;;;;29.30;96769.00;;;;5018458;28;20216;-70
2023/09/19 10:25:12;;;;;;;2.73;1.27;;;;;29.20;96771.00;;;;5020944;28;20224;-69
2023/09/19 10:28:03;;;;;;;1.13;0.90;;;;;29.70;96792.00;;;;5023107;28;20226;-69
2023/09/19 10:30:54;;;;;;;1.33;1.00;;;;;28.60;96777.00;;;;5026572;28;20213;-68
2023/09/19 10:33:44;;;;;;;1.90;1.10;;;;;28.90;96761.00;;;;5023468;28;20201;-69
2023/09/19 10:36:35;;;;;;;3.80;1.30;;;;;29.50;96764.00;;;;5024439;28;20215;-69
2023/09/19 10:39:26;;;;;;;2.13;1.30;;;;;30.00;96758.00;;;;5006552;28;20209;-69
2023/09/19 10:42:20;;;;;;;1.47;1.30;;;;;29.00;96802.00;;;;5024778;28;20200;-69
2023/09/19 10:45:13;;;;;;;3.47;2.20;;;;;28.30;96792.00;;;;5022515;28;20225;-69
2023/09/19 10:48:04;;;;;;;2.03;1.20;;;;;28.80;96772.00;;;;5027861;28;20709;-70
2023/09/19 10:50:55;;;;;;;1.47;1.20;;;;;29.30;96745.00;;;;5028555;28;20202;-70
2023/09/19 10:53:50;;;;;;;6.37;4.37;;;;;29.30;96797.00;;;;5025951;28;20200;-69
2023/09/19 10:56:48;;;;;;;4.10;2.30;;;;;28.80;96790.00;;;;5026721;28;20622;-70
2023/09/19 10:59:39;;;;;;;1.53;1.20;;;;;28.40;96791.00;;;;5024534;28;21616;-69
2023/09/19 11:02:28;;;;;;;2.27;1.47;;;;;28.30;96784.00;;;;5026221;28;20237;-70
2023/09/19 11:05:17;;;;;;;2.17;1.30;;;;;28.00;96786.00;;;;5022679;28;20224;-70
2023/09/19 11:08:07;;;;;;;2.00;1.50;;;;;27.10;96777.00;;;;5020299;28;20235;-70
2023/09/19 11:10:59;;;;;;;1.33;1.20;;;;;27.40;96771.00;;;;5023359;28;20266;-69
2023/09/19 11:14:30;;;;;;;5.63;1.43;;;;;26.60;96779.00;;;;5025943;28;20227;-70
2023/09/19 11:17:33;;;;;;;3.50;1.87;;;;;27.80;96776.00;;;;5021476;28;20231;-69
2023/09/19 11:23:30;;;;;;;5.10;1.30;;;;;30.30;96752.00;;;;5023229;28;20212;-69
2023/09/19 11:26:43;;;;;;;2.83;1.70;;;;;30.30;96789.00;;;;5024955;28;20222;-69
2023/09/19 11:29:35;;;;;;;1.67;1.27;;;;;29.90;96785.00;;;;5024499;28;20207;-69
2023/09/19 11:33:01;;;;;;;2.80;1.60;;;;;29.90;96734.00;;;;5021524;28;20218;-69
2023/09/19 11:36:06;;;;;;;2.87;1.40;;;;;29.50;96732.00;;;;5003982;28;20209;-68
2023/09/19 11:39:14;;;;;;;4.23;1.20;;;;;31.20;96725.00;;;;5027764;28;20219;-69
2023/09/19 11:42:42;;;;;;;3.17;1.00;;;;;29.40;96755.00;;;;5027522;28;20243;-70
2023/09/19 11:46:04;;;;;;;3.60;1.60;;;;;31.30;96744.00;;;;5018629;28;20697;-70
2023/09/19 11:48:54;;;;;;;1.85;1.35;;;;;30.20;96776.00;;;;5026370;28;20204;-70
2023/09/19 11:51:44;;;;;;;1.50;1.23;;;;;29.90;96761.00;;;;5022819;28;20216;-70
2023/09/19 11:54:33;;;;;;;3.65;1.05;;;;;32.00;96746.00;;;;5024299;28;20571;-71
2023/09/19 11:57:23;;;;;;;1.00;0.90;;;;;33.30;96720.00;;;;5023034;28;20229;-72
2023/09/19 12:00:19;;;;;;;2.10;1.45;;;;;34.10;96713.00;;;;5025459;28;20582;-71
2023/09/19 12:03:11;;;;;;;2.72;1.42;;;;;32.70;96774.00;;;;5028499;28;20201;-71
2023/09/19 12:06:02;;;;;;;1.33;0.95;;;;;31.60;96773.00;;;;5027270;28;20706;-71
2023/09/19 12:08:54;;;;;;;2.70;1.35;;;;;31.00;96781.00;;;;5028909;28;20211;-70
2023/09/19 12:11:44;;;;;;;1.65;1.25;;;;;30.10;96783.00;;;;5029675;28;20286;-69
2023/09/19 12:14:33;;;;;;;3.25;1.30;;;;;28.80;96779.00;;;;5027365;28;20240;-69
2023/09/19 12:17:24;;;;;;;1.50;1.33;;;;;27.90;96779.00;;;;5027253;28;20708;-69
2023/09/19 12:20:15;;;;;;;3.25;1.23;;;;;26.60;96779.00;;;;5027453;28;20204;-68
2023/09/19 12:23:15;;;;;;;3.43;1.77;;;;;26.20;96773.00;;;;5027833;28;20212;-69
2023/09/19 12:26:12;;;;;;;1.20;1.07;;;;;26.30;96772.00;;;;5028382;28;20649;-69
2023/09/19 12:29:04;;;;;;;2.43;1.30;;;;;26.40;96779.00;;;;5025926;28;20212;-68
2023/09/19 12:31:57;;;;;;;1.87;1.07;;;;;27.00;96791.00;;;;5026096;28;20215;-68
2023/09/19 12:34:54;;;;;;;1.87;1.30;;;;;27.30;96787.00;;;;5027021;28;20229;-69
2023/09/19 12:37:48;;;;;;;1.47;1.20;;;;;27.80;96776.00;;;;5027555;28;20236;-69
2023/09/19 12:40:38;;;;;;;3.77;1.30;;;;;27.80;96774.00;;;;5025552;28;20596;-68
2023/09/19 12:43:28;;;;;;;1.43;1.10;;;;;27.40;96784.00;;;;5024763;28;20267;-69
2023/09/19 12:46:21;;;;;;;1.27;1.20;;;;;27.70;96781.00;;;;5025955;28;20224;-68
2023/09/19 12:49:18;;;;;;;1.70;1.30;;;;;27.20;96777.00;;;;5024901;28;20207;-68
2023/09/19 12:52:07;;;;;;;1.60;1.00;;;;;27.00;96774.00;;;;5023323;28;20209;-69
2023/09/19 12:54:57;;;;;;;2.77;1.10;;;;;27.20;96770.00;;;;5025082;28;20230;-68
2023/09/19 12:58:00;;;;;;;4.10;2.00;;;;;27.40;96706.00;;;;5027633;28;20232;-69
2023/09/19 13:00:51;;;;;;;1.20;1.07;;;;;29.90;96714.00;;;;5026970;28;20199;-68
2023/09/19 13:03:40;;;;;;;1.83;1.30;;;;;31.00;96714.00;;;;5026385;28;20216;-68
2023/09/19 13:06:40;;;;;;;2.30;1.43;;;;;30.50;96724.00;;;;5026003;28;20220;-69
2023/09/19 13:09:34;;;;;;;1.98;1.45;;;;;32.40;96715.00;;;;5025378;28;20586;-70
2023/09/19 13:12:42;;;;;;;1.60;1.00;;;;;32.00;96781.00;;;;5021791;28;20207;-69
2023/09/19 13:15:54;;;;;;;2.70;1.30;;;;;30.60;96780.00;;;;5023732;28;20607;-69
2023/09/19 13:18:45;;;;;;;2.22;1.20;;;;;31.20;96784.00;;;;5024186;28;20746;-70
2023/09/19 13:21:37;;;;;;;3.33;1.30;;;;;30.40;96780.00;;;;5024116;28;20215;-70
2023/09/19 13:24:30;;;;;;;2.03;1.73;;;;;29.90;96771.00;;;;5023380;28;20243;-69
2023/09/19 13:27:19;;;;;;;3.58;1.20;;;;;29.70;96770.00;;;;5025197;28;20636;-70
2023/09/19 13:30:11;;;;;;;1.65;1.10;;;;;30.10;96708.00;;;;5025281;28;20203;-69
2023/09/19 13:33:07;;;;;;;5.22;1.52;;;;;32.40;96713.00;;;;5027716;28;20215;-69
2023/09/19 13:35:56;;;;;;;1.52;1.02;;;;;31.90;96777.00;;;;5027674;28;20226;-69
2023/09/19 13:38:48;;;;;;;2.83;1.25;;;;;32.50;96714.00;;;;5019384;28;20214;-69
2023/09/19 13:41:37;;;;;;;1.52;1.20;;;;;32.60;96778.00;;;;5021057;28;20521;-70
2023/09/19 13:44:28;;;;;;;4.28;1.25;;;;;31.20;96765.00;;;;5020501;28;20593;-68
2023/09/19 13:47:24;;;;;;;1.48;1.23;;;;;31.00;96709.00;;;;5039478;23;20722;-73
2023/09/19 13:50:13;;;;;;;2.08;1.33;;;;;29.60;96733.00;;;;5043368;28;20677;-71
2023/09/19 13:53:03;;;;;;;6.40;1.10;;;;;28.40;96748.00;;;;5044425;28;20207;-72
2023/09/19 13:55:52;;;;;;;1.20;1.10;;;;;28.90;96708.00;;;;5044761;28;20346;-74
2023/09/19 13:58:42;;;;;;;3.92;3.13;;;;;28.90;96714.00;;;;5031300;28;20232;-73
2023/09/19 14:01:31;;;;;;;4.95;1.83;;;;;30.20;96700.00;;;;5033323;28;20588;-74
2023/09/19 14:04:23;;;;;;;2.17;1.67;;;;;30.10;96753.00;;;;5032722;28;20206;-73
2023/09/19 14:07:12;;;;;;;1.67;0.82;;;;;29.60;96772.00;;;;5033419;28;20583;-72
2023/09/19 14:10:01;;;;;;;1.77;1.40;;;;;31.30;96722.00;;;;5031568;28;20211;-74
2023/09/19 14:12:50;;;;;;;4.03;1.52;;;;;31.40;96775.00;;;;5032849;28;20207;-73
2023/09/19 14:15:39;;;;;;;2.88;1.05;;;;;30.10;96777.00;;;;5031635;28;20218;-72
2023/09/19 14:18:28;;;;;;;1.27;1.15;;;;;30.10;96768.00;;;;5032614;28;20240;-72
2023/09/19 14:21:18;;;;;;;2.13;1.13;;;;;31.20;96714.00;;;;5033861;28;20203;-72
2023/09/19 14:24:09;;;;;;;3.03;1.05;;;;;31.80;96759.00;;;;5031023;28;20204;-73
2023/09/19 14:26:59;;;;;;;2.88;1.30;;;;;33.00;96729.00;;;;5034904;28;20579;-72